sensor_id;sensor_type;location;lat;lon;timestamp;P1;durP1;ratioP1;P2;durP2;ratioP2
70369;SDS011;57790;51.356;-2.906;2023-06-10T00:01:02;11.07;;;4.20;;
70369;SDS011;57790;51.356;-2.906;2023-06-10T00:04:03;10.03;;;4.33;;
70369;SDS011;57790;51.356;-2.906;2023-06-10T00:07:04;11.27;;;4.57;;
70369;SDS011;57790;51.356;-2.906;2023-06-10T00:10:08;12.57;;;4.72;;
70369;SDS011;57790;51.356;-2.906;2023-06-10T00:13:10;11.37;;;4.30;;
70369;SDS011;57790;51.356;-2.906;2023-06-10T00:16:14;10.50;;;4.50;;
70369;SDS011;57790;51.356;-2.906;2023-06-10T00:19:14;12.43;;;4.60;;
70369;SDS011;57790;51.356;-2.906;2023-06-10T00:22:15;11.52;;;4.80;;
70369;SDS011;57790;51.356;-2.906;2023-06-10T00:25:16;13.52;;;4.90;;
70369;SDS011;57790;51.356;-2.906;2023-06-10T00:28:17;10.33;;;4.20;;
70369;SDS011;57790;51.356;-2.906;2023-06-10T00:31:17;11.83;;;4.20;;
70369;SDS011;57790;51.356;-2.906;2023-06-10T00:34:18;10.88;;;4.30;;
70369;SDS011;57790;51.356;-2.906;2023-06-10T00:37:18;13.27;;;4.40;;
70369;SDS011;57790;51.356;-2.906;2023-06-10T00:40:18;12.13;;;4.27;;
70369;SDS011;57790;51.356;-2.906;2023-06-10T00:43:19;11.90;;;4.50;;
70369;SDS011;57790;51.356;-2.906;2023-06-10T00:46:20;9.80;;;4.23;;
70369;SDS011;57790;51.356;-2.906;2023-06-10T00:49:21;11.80;;;4.40;;
70369;SDS011;57790;51.356;-2.906;2023-06-10T00:52:22;11.20;;;4.00;;
70369;SDS011;57790;51.356;-2.906;2023-06-10T00:55:27;11.45;;;4.22;;
70369;SDS011;57790;51.356;-2.906;2023-06-10T00:58:27;9.70;;;4.00;;
70369;SDS011;57790;51.356;-2.906;2023-06-10T01:01:28;12.93;;;4.50;;
70369;SDS011;57790;51.356;-2.906;2023-06-10T01:04:38;10.75;;;4.68;;
70369;SDS011;57790;51.356;-2.906;2023-06-10T01:11:01;13.45;;;4.55;;
70369;SDS011;57790;51.356;-2.906;2023-06-10T01:14:06;13.85;;;4.93;;
70369;SDS011;57790;51.356;-2.906;2023-06-10T01:17:09;13.57;;;4.20;;
70369;SDS011;57790;51.356;-2.906;2023-06-10T01:20:10;13.70;;;4.50;;
70369;SDS011;57790;51.356;-2.906;2023-06-10T01:23:11;10.48;;;4.30;;
70369;SDS011;57790;51.356;-2.906;2023-06-10T01:26:12;11.97;;;4.10;;
70369;SDS011;57790;51.356;-2.906;2023-06-10T01:29:17;12.55;;;4.60;;
70369;SDS011;57790;51.356;-2.906;2023-06-10T01:32:34;14.23;;;4.60;;
70369;SDS011;57790;51.356;-2.906;2023-06-10T01:35:42;12.55;;;4.55;;
70369;SDS011;57790;51.356;-2.906;2023-06-10T01:38:44;10.13;;;4.13;;
70369;SDS011;57790;51.356;-2.906;2023-06-10T01:41:46;12.15;;;4.20;;
70369;SDS011;57790;51.356;-2.906;2023-06-10T01:44:48;12.32;;;3.95;;
70369;SDS011;57790;51.356;-2.906;2023-06-10T01:47:49;9.97;;;3.70;;
70369;SDS011;57790;51.356;-2.906;2023-06-10T01:50:49;12.03;;;3.80;;
70369;SDS011;57790;51.356;-2.906;2023-06-10T01:53:49;10.67;;;4.27;;
70369;SDS011;57790;51.356;-2.906;2023-06-10T01:56:50;12.00;;;4.40;;
70369;SDS011;57790;51.356;-2.906;2023-06-10T01:59:51;11.32;;;3.90;;
70369;SDS011;57790;51.356;-2.906;2023-06-10T02:02:52;13.07;;;4.10;;
70369;SDS011;57790;51.356;-2.906;2023-06-10T02:05:52;12.75;;;4.00;;
70369;SDS011;57790;51.356;-2.906;2023-06-10T02:08:52;11.53;;;4.50;;
70369;SDS011;57790;51.356;-2.906;2023-06-10T02:11:53;11.33;;;4.37;;
70369;SDS011;57790;51.356;-2.906;2023-06-10T02:14:53;9.93;;;4.03;;
70369;SDS011;57790;51.356;-2.906;2023-06-10T02:17:54;11.43;;;4.00;;
70369;SDS011;57790;51.356;-2.906;2023-06-10T02:20:54;12.48;;;3.60;;
70369;SDS011;57790;51.356;-2.906;2023-06-10T02:23:55;13.63;;;4.17;;
70369;SDS011;57790;51.356;-2.906;2023-06-10T02:26:55;11.27;;;4.03;;
70369;SDS011;57790;51.356;-2.906;2023-06-10T02:29:56;10.90;;;3.92;;
70369;SDS011;57790;51.356;-2.906;2023-06-10T02:32:57;9.95;;;3.90;;
70369;SDS011;57790;51.356;-2.906;2023-06-10T02:35:59;11.83;;;4.40;;
70369;SDS011;57790;51.356;-2.906;2023-06-10T02:38:59;13.00;;;4.15;;
70369;SDS011;57790;51.356;-2.906;2023-06-10T02:41:59;11.53;;;4.60;;
70369;SDS011;57790;51.356;-2.906;2023-06-10T02:45:00;11.23;;;4.57;;
70369;SDS011;57790;51.356;-2.906;2023-06-10T02:48:00;11.57;;;4.23;;
70369;SDS011;57790;51.356;-2.906;2023-06-10T02:51:01;12.90;;;4.18;;
70369;SDS011;57790;51.356;-2.906;2023-06-10T02:54:01;11.20;;;4.30;;
70369;SDS011;57790;51.356;-2.906;2023-06-10T02:57:02;12.37;;;4.30;;
70369;SDS011;57790;51.356;-2.906;2023-06-10T03:00:02;13.10;;;4.10;;
70369;SDS011;57790;51.356;-2.906;2023-06-10T03:03:09;11.48;;;4.15;;
70369;SDS011;57790;51.356;-2.906;2023-06-10T03:06:10;11.32;;;4.63;;
70369;SDS011;57790;51.356;-2.906;2023-06-10T03:09:11;9.93;;;4.20;;
70369;SDS011;57790;51.356;-2.906;2023-06-10T03:12:11;11.90;;;4.43;;
70369;SDS011;57790;51.356;-2.906;2023-06-10T03:15:11;10.90;;;3.97;;
70369;SDS011;57790;51.356;-2.906;2023-06-10T03:18:12;11.77;;;4.37;;
70369;SDS011;57790;51.356;-2.906;2023-06-10T03:21:12;13.40;;;4.23;;
70369;SDS011;57790;51.356;-2.906;2023-06-10T03:24:13;12.60;;;4.43;;
70369;SDS011;57790;51.356;-2.906;2023-06-10T03:27:13;13.70;;;4.30;;
70369;SDS011;57790;51.356;-2.906;2023-06-10T03:30:14;12.98;;;4.90;;
70369;SDS011;57790;51.356;-2.906;2023-06-10T03:33:15;12.10;;;4.70;;
70369;SDS011;57790;51.356;-2.906;2023-06-10T03:36:15;10.53;;;4.17;;
70369;SDS011;57790;51.356;-2.906;2023-06-10T03:39:16;12.82;;;4.43;;
70369;SDS011;57790;51.356;-2.906;2023-06-10T03:42:16;11.17;;;4.17;;
70369;SDS011;57790;51.356;-2.906;2023-06-10T03:45:16;13.93;;;4.67;;
70369;SDS011;57790;51.356;-2.906;2023-06-10T03:48:17;11.82;;;4.68;;
70369;SDS011;57790;51.356;-2.906;2023-06-10T03:51:18;13.10;;;4.57;;
70369;SDS011;57790;51.356;-2.906;2023-06-10T03:54:18;14.33;;;5.60;;
70369;SDS011;57790;51.356;-2.906;2023-06-10T03:57:18;10.30;;;4.77;;
70369;SDS011;57790;51.356;-2.906;2023-06-10T04:00:19;13.32;;;5.22;;
70369;SDS011;57790;51.356;-2.906;2023-06-10T04:03:21;12.48;;;5.15;;
70369;SDS011;57790;51.356;-2.906;2023-06-10T04:06:22;13.00;;;5.13;;
70369;SDS011;57790;51.356;-2.906;2023-06-10T04:09:25;13.13;;;5.03;;
70369;SDS011;57790;51.356;-2.906;2023-06-10T04:12:25;14.80;;;5.37;;
70369;SDS011;57790;51.356;-2.906;2023-06-10T04:15:26;11.10;;;4.85;;
70369;SDS011;57790;51.356;-2.906;2023-06-10T04:18:26;13.80;;;4.90;;
70369;SDS011;57790;51.356;-2.906;2023-06-10T04:21:27;12.17;;;4.93;;
70369;SDS011;57790;51.356;-2.906;2023-06-10T04:24:28;14.20;;;4.97;;
70369;SDS011;57790;51.356;-2.906;2023-06-10T04:27:29;14.40;;;5.23;;
70369;SDS011;57790;51.356;-2.906;2023-06-10T04:30:30;14.90;;;5.95;;
70369;SDS011;57790;51.356;-2.906;2023-06-10T04:33:31;15.23;;;5.40;;
70369;SDS011;57790;51.356;-2.906;2023-06-10T04:36:31;14.37;;;5.70;;
70369;SDS011;57790;51.356;-2.906;2023-06-10T04:39:32;15.47;;;5.60;;
70369;SDS011;57790;51.356;-2.906;2023-06-10T04:42:32;13.57;;;5.60;;
70369;SDS011;57790;51.356;-2.906;2023-06-10T04:45:32;15.10;;;4.90;;
70369;SDS011;57790;51.356;-2.906;2023-06-10T04:48:33;14.07;;;5.00;;
70369;SDS011;57790;51.356;-2.906;2023-06-10T04:51:35;12.68;;;5.30;;
70369;SDS011;57790;51.356;-2.906;2023-06-10T04:54:35;14.00;;;5.30;;
70369;SDS011;57790;51.356;-2.906;2023-06-10T04:57:36;13.00;;;5.60;;
70369;SDS011;57790;51.356;-2.906;2023-06-10T05:00:36;12.67;;;5.10;;
70369;SDS011;57790;51.356;-2.906;2023-06-10T05:03:37;13.77;;;5.47;;
70369;SDS011;57790;51.356;-2.906;2023-06-10T05:06:37;11.77;;;4.60;;
70369;SDS011;57790;51.356;-2.906;2023-06-10T05:09:37;13.97;;;4.80;;
70369;SDS011;57790;51.356;-2.906;2023-06-10T05:12:38;11.73;;;4.80;;
70369;SDS011;57790;51.356;-2.906;2023-06-10T05:15:39;13.60;;;5.20;;
70369;SDS011;57790;51.356;-2.906;2023-06-10T05:18:40;11.77;;;4.95;;
70369;SDS011;57790;51.356;-2.906;2023-06-10T05:21:41;11.67;;;4.83;;
70369;SDS011;57790;51.356;-2.906;2023-06-10T05:24:41;12.27;;;5.20;;
70369;SDS011;57790;51.356;-2.906;2023-06-10T05:27:42;14.80;;;5.53;;
70369;SDS011;57790;51.356;-2.906;2023-06-10T05:30:43;14.23;;;5.97;;
70369;SDS011;57790;51.356;-2.906;2023-06-10T05:33:43;12.60;;;5.10;;
70369;SDS011;57790;51.356;-2.906;2023-06-10T05:36:44;16.40;;;6.18;;
70369;SDS011;57790;51.356;-2.906;2023-06-10T05:39:44;14.97;;;5.70;;
70369;SDS011;57790;51.356;-2.906;2023-06-10T05:42:45;14.33;;;5.80;;
70369;SDS011;57790;51.356;-2.906;2023-06-10T05:45:45;21.43;;;6.77;;
70369;SDS011;57790;51.356;-2.906;2023-06-10T05:48:45;15.50;;;6.10;;
70369;SDS011;57790;51.356;-2.906;2023-06-10T05:51:46;16.75;;;6.18;;
70369;SDS011;57790;51.356;-2.906;2023-06-10T05:54:46;17.10;;;6.77;;
70369;SDS011;57790;51.356;-2.906;2023-06-10T05:57:47;16.13;;;6.37;;
70369;SDS011;57790;51.356;-2.906;2023-06-10T06:00:47;17.53;;;6.37;;
70369;SDS011;57790;51.356;-2.906;2023-06-10T06:03:47;17.63;;;6.70;;
70369;SDS011;57790;51.356;-2.906;2023-06-10T06:06:48;16.17;;;5.93;;
70369;SDS011;57790;51.356;-2.906;2023-06-10T06:09:48;15.70;;;6.50;;
70369;SDS011;57790;51.356;-2.906;2023-06-10T06:12:48;14.43;;;5.82;;
70369;SDS011;57790;51.356;-2.906;2023-06-10T06:15:49;17.10;;;6.17;;
70369;SDS011;57790;51.356;-2.906;2023-06-10T06:18:50;16.47;;;6.70;;
70369;SDS011;57790;51.356;-2.906;2023-06-10T06:21:50;13.83;;;5.47;;
70369;SDS011;57790;51.356;-2.906;2023-06-10T06:24:51;14.70;;;5.60;;
70369;SDS011;57790;51.356;-2.906;2023-06-10T06:27:51;15.70;;;5.57;;
70369;SDS011;57790;51.356;-2.906;2023-06-10T06:30:51;16.67;;;6.30;;
70369;SDS011;57790;51.356;-2.906;2023-06-10T06:33:52;14.67;;;5.60;;
70369;SDS011;57790;51.356;-2.906;2023-06-10T06:36:52;16.73;;;5.90;;
70369;SDS011;57790;51.356;-2.906;2023-06-10T06:39:52;19.03;;;7.03;;
70369;SDS011;57790;51.356;-2.906;2023-06-10T06:42:54;15.70;;;6.47;;
70369;SDS011;57790;51.356;-2.906;2023-06-10T06:45:54;17.50;;;7.63;;
70369;SDS011;57790;51.356;-2.906;2023-06-10T06:48:55;18.20;;;7.10;;
70369;SDS011;57790;51.356;-2.906;2023-06-10T06:51:55;20.73;;;7.17;;
70369;SDS011;57790;51.356;-2.906;2023-06-10T06:54:56;16.57;;;6.70;;
70369;SDS011;57790;51.356;-2.906;2023-06-10T06:57:56;16.95;;;5.82;;
70369;SDS011;57790;51.356;-2.906;2023-06-10T07:00:57;18.23;;;7.10;;
70369;SDS011;57790;51.356;-2.906;2023-06-10T07:03:57;17.27;;;6.13;;
70369;SDS011;57790;51.356;-2.906;2023-06-10T07:06:57;13.97;;;5.70;;
70369;SDS011;57790;51.356;-2.906;2023-06-10T07:09:58;19.77;;;6.90;;
70369;SDS011;57790;51.356;-2.906;2023-06-10T07:12:58;15.23;;;7.00;;
70369;SDS011;57790;51.356;-2.906;2023-06-10T07:15:58;12.77;;;6.00;;
70369;SDS011;57790;51.356;-2.906;2023-06-10T07:18:59;15.50;;;5.97;;
70369;SDS011;57790;51.356;-2.906;2023-06-10T07:21:59;14.17;;;5.73;;
70369;SDS011;57790;51.356;-2.906;2023-06-10T07:25:00;16.70;;;6.33;;
70369;SDS011;57790;51.356;-2.906;2023-06-10T07:28:00;17.13;;;5.97;;
70369;SDS011;57790;51.356;-2.906;2023-06-10T07:31:01;16.63;;;5.97;;
70369;SDS011;57790;51.356;-2.906;2023-06-10T07:34:01;17.63;;;6.30;;
70369;SDS011;57790;51.356;-2.906;2023-06-10T07:37:02;13.87;;;6.20;;
70369;SDS011;57790;51.356;-2.906;2023-06-10T07:40:02;15.93;;;6.47;;
70369;SDS011;57790;51.356;-2.906;2023-06-10T07:43:03;19.07;;;5.97;;
70369;SDS011;57790;51.356;-2.906;2023-06-10T07:46:04;13.77;;;5.77;;
70369;SDS011;57790;51.356;-2.906;2023-06-10T07:49:05;14.87;;;6.60;;
70369;SDS011;57790;51.356;-2.906;2023-06-10T07:52:06;16.15;;;5.88;;
70369;SDS011;57790;51.356;-2.906;2023-06-10T07:55:07;15.23;;;6.50;;
70369;SDS011;57790;51.356;-2.906;2023-06-10T07:58:07;13.60;;;5.88;;
70369;SDS011;57790;51.356;-2.906;2023-06-10T08:01:07;13.63;;;5.77;;
70369;SDS011;57790;51.356;-2.906;2023-06-10T08:04:08;13.32;;;5.72;;
70369;SDS011;57790;51.356;-2.906;2023-06-10T08:07:09;12.87;;;5.50;;
70369;SDS011;57790;51.356;-2.906;2023-06-10T08:10:09;13.83;;;5.37;;
70369;SDS011;57790;51.356;-2.906;2023-06-10T08:13:10;14.48;;;5.72;;
70369;SDS011;57790;51.356;-2.906;2023-06-10T08:16:11;15.00;;;5.70;;
70369;SDS011;57790;51.356;-2.906;2023-06-10T08:19:11;12.77;;;5.50;;
70369;SDS011;57790;51.356;-2.906;2023-06-10T08:22:11;15.23;;;5.37;;
70369;SDS011;57790;51.356;-2.906;2023-06-10T08:25:12;13.10;;;5.37;;
70369;SDS011;57790;51.356;-2.906;2023-06-10T08:28:12;13.13;;;5.00;;
70369;SDS011;57790;51.356;-2.906;2023-06-10T08:31:13;12.27;;;5.30;;
70369;SDS011;57790;51.356;-2.906;2023-06-10T08:34:13;12.20;;;5.03;;
70369;SDS011;57790;51.356;-2.906;2023-06-10T08:37:13;12.70;;;5.20;;
70369;SDS011;57790;51.356;-2.906;2023-06-10T08:40:14;10.70;;;4.60;;
70369;SDS011;57790;51.356;-2.906;2023-06-10T08:43:31;12.23;;;5.17;;
70369;SDS011;57790;51.356;-2.906;2023-06-10T08:46:36;12.90;;;5.00;;
70369;SDS011;57790;51.356;-2.906;2023-06-10T08:49:38;10.97;;;4.87;;
70369;SDS011;57790;51.356;-2.906;2023-06-10T08:52:42;14.57;;;5.13;;
70369;SDS011;57790;51.356;-2.906;2023-06-10T08:55:44;11.48;;;4.80;;
70369;SDS011;57790;51.356;-2.906;2023-06-10T08:58:49;12.27;;;5.03;;
70369;SDS011;57790;51.356;-2.906;2023-06-10T09:01:49;11.53;;;4.90;;
70369;SDS011;57790;51.356;-2.906;2023-06-10T09:04:50;11.48;;;4.97;;
70369;SDS011;57790;51.356;-2.906;2023-06-10T09:07:52;12.93;;;4.97;;
70369;SDS011;57790;51.356;-2.906;2023-06-10T09:10:52;11.87;;;4.83;;
70369;SDS011;57790;51.356;-2.906;2023-06-10T09:13:53;12.68;;;5.00;;
70369;SDS011;57790;51.356;-2.906;2023-06-10T09:16:53;12.47;;;4.43;;
70369;SDS011;57790;51.356;-2.906;2023-06-10T09:19:56;13.15;;;4.85;;
70369;SDS011;57790;51.356;-2.906;2023-06-10T09:22:57;13.60;;;5.20;;
70369;SDS011;57790;51.356;-2.906;2023-06-10T09:25:59;10.35;;;4.68;;
70369;SDS011;57790;51.356;-2.906;2023-06-10T09:29:06;11.33;;;4.97;;
70369;SDS011;57790;51.356;-2.906;2023-06-10T09:32:12;11.90;;;4.85;;
70369;SDS011;57790;51.356;-2.906;2023-06-10T09:35:12;11.50;;;4.80;;
70369;SDS011;57790;51.356;-2.906;2023-06-10T09:38:14;13.00;;;4.83;;
70369;SDS011;57790;51.356;-2.906;2023-06-10T09:41:19;12.60;;;4.97;;
70369;SDS011;57790;51.356;-2.906;2023-06-10T09:44:20;12.37;;;5.23;;
70369;SDS011;57790;51.356;-2.906;2023-06-10T09:47:22;12.85;;;5.28;;
70369;SDS011;57790;51.356;-2.906;2023-06-10T09:50:22;10.02;;;4.47;;
70369;SDS011;57790;51.356;-2.906;2023-06-10T09:53:23;13.55;;;5.00;;
70369;SDS011;57790;51.356;-2.906;2023-06-10T09:56:33;11.30;;;4.90;;
70369;SDS011;57790;51.356;-2.906;2023-06-10T09:59:35;12.55;;;4.72;;
70369;SDS011;57790;51.356;-2.906;2023-06-10T10:02:47;12.82;;;4.80;;
70369;SDS011;57790;51.356;-2.906;2023-06-10T10:05:57;13.07;;;4.70;;
70369;SDS011;57790;51.356;-2.906;2023-06-10T10:08:59;10.60;;;4.63;;
70369;SDS011;57790;51.356;-2.906;2023-06-10T10:11:59;10.65;;;4.80;;
70369;SDS011;57790;51.356;-2.906;2023-06-10T10:15:02;12.53;;;5.13;;
70369;SDS011;57790;51.356;-2.906;2023-06-10T10:18:07;10.93;;;4.82;;
70369;SDS011;57790;51.356;-2.906;2023-06-10T10:21:11;11.80;;;5.03;;
70369;SDS011;57790;51.356;-2.906;2023-06-10T10:24:16;12.05;;;4.70;;
70369;SDS011;57790;51.356;-2.906;2023-06-10T10:27:25;11.27;;;4.45;;
70369;SDS011;57790;51.356;-2.906;2023-06-10T10:30:28;12.37;;;5.17;;
70369;SDS011;57790;51.356;-2.906;2023-06-10T10:33:36;13.50;;;5.40;;
70369;SDS011;57790;51.356;-2.906;2023-06-10T10:36:48;11.90;;;4.53;;
70369;SDS011;57790;51.356;-2.906;2023-06-10T10:39:50;11.40;;;4.97;;
70369;SDS011;57790;51.356;-2.906;2023-06-10T10:42:50;11.77;;;5.37;;
70369;SDS011;57790;51.356;-2.906;2023-06-10T10:45:58;12.18;;;4.90;;
70369;SDS011;57790;51.356;-2.906;2023-06-10T10:49:00;11.07;;;4.85;;
70369;SDS011;57790;51.356;-2.906;2023-06-10T10:52:01;11.45;;;4.53;;
70369;SDS011;57790;51.356;-2.906;2023-06-10T10:55:05;10.40;;;4.93;;
70369;SDS011;57790;51.356;-2.906;2023-06-10T10:58:13;12.13;;;5.38;;
70369;SDS011;57790;51.356;-2.906;2023-06-10T11:01:15;11.23;;;5.05;;
70369;SDS011;57790;51.356;-2.906;2023-06-10T11:04:17;10.73;;;4.77;;
70369;SDS011;57790;51.356;-2.906;2023-06-10T11:07:21;10.13;;;4.65;;
70369;SDS011;57790;51.356;-2.906;2023-06-10T11:13:38;11.02;;;4.35;;
70369;SDS011;57790;51.356;-2.906;2023-06-10T11:16:39;12.07;;;4.77;;
70369;SDS011;57790;51.356;-2.906;2023-06-10T11:19:43;14.10;;;4.53;;
70369;SDS011;57790;51.356;-2.906;2023-06-10T11:22:58;11.20;;;4.70;;
70369;SDS011;57790;51.356;-2.906;2023-06-10T11:26:19;9.15;;;4.35;;
70369;SDS011;57790;51.356;-2.906;2023-06-10T11:29:34;11.52;;;5.05;;
70369;SDS011;57790;51.356;-2.906;2023-06-10T11:32:34;11.73;;;5.00;;
70369;SDS011;57790;51.356;-2.906;2023-06-10T11:35:35;10.35;;;4.50;;
70369;SDS011;57790;51.356;-2.906;2023-06-10T11:38:35;11.00;;;4.90;;
70369;SDS011;57790;51.356;-2.906;2023-06-10T11:41:37;11.53;;;4.40;;
70369;SDS011;57790;51.356;-2.906;2023-06-10T11:44:38;12.60;;;4.65;;
70369;SDS011;57790;51.356;-2.906;2023-06-10T11:47:56;11.18;;;4.65;;
70369;SDS011;57790;51.356;-2.906;2023-06-10T11:51:00;12.93;;;4.78;;
70369;SDS011;57790;51.356;-2.906;2023-06-10T11:54:01;12.97;;;5.07;;
70369;SDS011;57790;51.356;-2.906;2023-06-10T11:57:02;12.13;;;4.95;;
70369;SDS011;57790;51.356;-2.906;2023-06-10T12:00:06;12.93;;;5.00;;
70369;SDS011;57790;51.356;-2.906;2023-06-10T12:03:08;13.17;;;5.10;;
70369;SDS011;57790;51.356;-2.906;2023-06-10T12:06:08;11.07;;;5.10;;
70369;SDS011;57790;51.356;-2.906;2023-06-10T12:09:28;12.10;;;4.70;;
70369;SDS011;57790;51.356;-2.906;2023-06-10T12:12:29;12.50;;;4.85;;
70369;SDS011;57790;51.356;-2.906;2023-06-10T12:15:30;10.40;;;4.70;;
70369;SDS011;57790;51.356;-2.906;2023-06-10T12:18:32;11.32;;;4.40;;
70369;SDS011;57790;51.356;-2.906;2023-06-10T12:21:33;12.07;;;5.03;;
70369;SDS011;57790;51.356;-2.906;2023-06-10T12:24:46;11.55;;;5.60;;
70369;SDS011;57790;51.356;-2.906;2023-06-10T12:28:04;12.82;;;5.03;;
70369;SDS011;57790;51.356;-2.906;2023-06-10T12:31:06;11.48;;;4.95;;
70369;SDS011;57790;51.356;-2.906;2023-06-10T12:34:10;12.93;;;4.90;;
70369;SDS011;57790;51.356;-2.906;2023-06-10T12:37:11;11.13;;;5.18;;
70369;SDS011;57790;51.356;-2.906;2023-06-10T12:40:13;12.17;;;5.17;;
70369;SDS011;57790;51.356;-2.906;2023-06-10T12:43:18;10.35;;;4.97;;
70369;SDS011;57790;51.356;-2.906;2023-06-10T12:46:35;12.33;;;4.83;;
70369;SDS011;57790;51.356;-2.906;2023-06-10T12:49:36;11.73;;;4.43;;
70369;SDS011;57790;51.356;-2.906;2023-06-10T12:52:37;10.15;;;4.60;;
70369;SDS011;57790;51.356;-2.906;2023-06-10T12:55:37;12.50;;;5.33;;
70369;SDS011;57790;51.356;-2.906;2023-06-10T12:58:38;11.60;;;4.93;;
70369;SDS011;57790;51.356;-2.906;2023-06-10T13:01:38;11.55;;;5.10;;
70369;SDS011;57790;51.356;-2.906;2023-06-10T13:04:39;12.30;;;5.10;;
70369;SDS011;57790;51.356;-2.906;2023-06-10T13:07:39;13.07;;;5.20;;
70369;SDS011;57790;51.356;-2.906;2023-06-10T13:10:41;11.43;;;5.32;;
70369;SDS011;57790;51.356;-2.906;2023-06-10T13:13:42;11.55;;;4.97;;
70369;SDS011;57790;51.356;-2.906;2023-06-10T13:16:43;13.17;;;5.03;;
70369;SDS011;57790;51.356;-2.906;2023-06-10T13:19:44;12.20;;;5.07;;
70369;SDS011;57790;51.356;-2.906;2023-06-10T13:22:45;10.53;;;4.90;;
70369;SDS011;57790;51.356;-2.906;2023-06-10T13:25:45;11.03;;;4.50;;
70369;SDS011;57790;51.356;-2.906;2023-06-10T13:28:46;12.23;;;4.90;;
70369;SDS011;57790;51.356;-2.906;2023-06-10T13:31:47;12.18;;;5.25;;
70369;SDS011;57790;51.356;-2.906;2023-06-10T13:34:47;11.23;;;4.67;;
70369;SDS011;57790;51.356;-2.906;2023-06-10T13:37:49;12.57;;;5.35;;
70369;SDS011;57790;51.356;-2.906;2023-06-10T13:40:50;10.53;;;4.37;;
70369;SDS011;57790;51.356;-2.906;2023-06-10T13:43:51;9.98;;;4.43;;
70369;SDS011;57790;51.356;-2.906;2023-06-10T13:46:51;10.10;;;4.90;;
70369;SDS011;57790;51.356;-2.906;2023-06-10T13:49:51;10.87;;;4.43;;
70369;SDS011;57790;51.356;-2.906;2023-06-10T13:52:52;10.43;;;4.90;;
70369;SDS011;57790;51.356;-2.906;2023-06-10T13:55:52;10.53;;;4.60;;
70369;SDS011;57790;51.356;-2.906;2023-06-10T13:58:52;10.70;;;4.67;;
70369;SDS011;57790;51.356;-2.906;2023-06-10T14:01:53;11.73;;;4.90;;
70369;SDS011;57790;51.356;-2.906;2023-06-10T14:04:53;10.17;;;4.63;;
70369;SDS011;57790;51.356;-2.906;2023-06-10T14:07:54;10.07;;;4.37;;
70369;SDS011;57790;51.356;-2.906;2023-06-10T14:10:54;9.87;;;4.30;;
70369;SDS011;57790;51.356;-2.906;2023-06-10T14:13:55;10.60;;;4.65;;
70369;SDS011;57790;51.356;-2.906;2023-06-10T14:16:58;10.50;;;4.70;;
70369;SDS011;57790;51.356;-2.906;2023-06-10T14:19:59;11.82;;;5.15;;
70369;SDS011;57790;51.356;-2.906;2023-06-10T14:23:02;12.70;;;5.13;;
70369;SDS011;57790;51.356;-2.906;2023-06-10T14:26:02;12.40;;;5.40;;
70369;SDS011;57790;51.356;-2.906;2023-06-10T14:29:03;10.03;;;5.03;;
70369;SDS011;57790;51.356;-2.906;2023-06-10T14:32:03;9.85;;;4.63;;
70369;SDS011;57790;51.356;-2.906;2023-06-10T14:35:04;10.17;;;4.97;;
70369;SDS011;57790;51.356;-2.906;2023-06-10T14:38:04;10.63;;;4.93;;
70369;SDS011;57790;51.356;-2.906;2023-06-10T14:41:05;8.82;;;4.25;;
70369;SDS011;57790;51.356;-2.906;2023-06-10T14:44:05;8.50;;;4.30;;
70369;SDS011;57790;51.356;-2.906;2023-06-10T14:47:06;8.57;;;4.30;;
70369;SDS011;57790;51.356;-2.906;2023-06-10T14:50:06;8.90;;;4.57;;
70369;SDS011;57790;51.356;-2.906;2023-06-10T14:53:07;10.10;;;4.60;;
70369;SDS011;57790;51.356;-2.906;2023-06-10T14:56:07;8.97;;;4.70;;
70369;SDS011;57790;51.356;-2.906;2023-06-10T14:59:08;10.83;;;5.10;;
70369;SDS011;57790;51.356;-2.906;2023-06-10T15:02:08;10.10;;;4.50;;
70369;SDS011;57790;51.356;-2.906;2023-06-10T15:05:08;8.90;;;4.60;;
70369;SDS011;57790;51.356;-2.906;2023-06-10T15:08:09;8.70;;;4.20;;
70369;SDS011;57790;51.356;-2.906;2023-06-10T15:11:09;9.20;;;3.97;;
70369;SDS011;57790;51.356;-2.906;2023-06-10T15:14:11;10.73;;;4.50;;
70369;SDS011;57790;51.356;-2.906;2023-06-10T15:17:11;8.93;;;4.40;;
70369;SDS011;57790;51.356;-2.906;2023-06-10T15:20:11;8.90;;;4.13;;
70369;SDS011;57790;51.356;-2.906;2023-06-10T15:23:12;9.90;;;4.13;;
70369;SDS011;57790;51.356;-2.906;2023-06-10T15:26:12;9.05;;;4.30;;
70369;SDS011;57790;51.356;-2.906;2023-06-10T15:29:12;9.40;;;4.40;;
70369;SDS011;57790;51.356;-2.906;2023-06-10T15:32:13;9.40;;;4.32;;
70369;SDS011;57790;51.356;-2.906;2023-06-10T15:35:14;9.30;;;4.50;;
70369;SDS011;57790;51.356;-2.906;2023-06-10T15:38:14;10.80;;;4.50;;
70369;SDS011;57790;51.356;-2.906;2023-06-10T15:41:15;9.17;;;4.20;;
70369;SDS011;57790;51.356;-2.906;2023-06-10T15:44:15;8.80;;;4.10;;
70369;SDS011;57790;51.356;-2.906;2023-06-10T15:47:16;8.37;;;4.03;;
70369;SDS011;57790;51.356;-2.906;2023-06-10T15:50:16;7.60;;;4.10;;
70369;SDS011;57790;51.356;-2.906;2023-06-10T15:53:17;11.07;;;4.70;;
70369;SDS011;57790;51.356;-2.906;2023-06-10T15:56:17;9.57;;;4.40;;
70369;SDS011;57790;51.356;-2.906;2023-06-10T15:59:17;8.23;;;3.85;;
70369;SDS011;57790;51.356;-2.906;2023-06-10T16:02:18;9.07;;;3.93;;
70369;SDS011;57790;51.356;-2.906;2023-06-10T16:05:18;8.70;;;4.13;;
70369;SDS011;57790;51.356;-2.906;2023-06-10T16:08:19;9.53;;;4.73;;
70369;SDS011;57790;51.356;-2.906;2023-06-10T16:11:20;8.43;;;4.10;;
70369;SDS011;57790;51.356;-2.906;2023-06-10T16:14:22;9.18;;;4.00;;
70369;SDS011;57790;51.356;-2.906;2023-06-10T16:17:22;8.57;;;4.20;;
70369;SDS011;57790;51.356;-2.906;2023-06-10T16:20:22;9.47;;;4.57;;
70369;SDS011;57790;51.356;-2.906;2023-06-10T16:23:23;8.67;;;4.50;;
70369;SDS011;57790;51.356;-2.906;2023-06-10T16:26:23;10.17;;;4.10;;
70369;SDS011;57790;51.356;-2.906;2023-06-10T16:29:25;8.10;;;4.13;;
70369;SDS011;57790;51.356;-2.906;2023-06-10T16:32:26;8.45;;;4.18;;
70369;SDS011;57790;51.356;-2.906;2023-06-10T16:35:26;9.33;;;4.37;;
70369;SDS011;57790;51.356;-2.906;2023-06-10T16:38:26;9.57;;;4.30;;
70369;SDS011;57790;51.356;-2.906;2023-06-10T16:41:27;10.90;;;4.80;;
70369;SDS011;57790;51.356;-2.906;2023-06-10T16:44:27;8.13;;;4.27;;
70369;SDS011;57790;51.356;-2.906;2023-06-10T16:47:27;8.57;;;4.10;;
70369;SDS011;57790;51.356;-2.906;2023-06-10T16:50:28;7.70;;;3.73;;
70369;SDS011;57790;51.356;-2.906;2023-06-10T16:53:28;8.60;;;4.10;;
70369;SDS011;57790;51.356;-2.906;2023-06-10T16:56:29;8.33;;;3.87;;
70369;SDS011;57790;51.356;-2.906;2023-06-10T16:59:29;8.90;;;3.97;;
70369;SDS011;57790;51.356;-2.906;2023-06-10T17:02:30;8.47;;;4.10;;
70369;SDS011;57790;51.356;-2.906;2023-06-10T17:05:31;8.85;;;4.53;;
70369;SDS011;57790;51.356;-2.906;2023-06-10T17:08:32;8.20;;;4.43;;
70369;SDS011;57790;51.356;-2.906;2023-06-10T17:11:32;8.93;;;4.43;;
70369;SDS011;57790;51.356;-2.906;2023-06-10T17:14:33;9.27;;;4.63;;
70369;SDS011;57790;51.356;-2.906;2023-06-10T17:17:33;10.45;;;5.68;;
70369;SDS011;57790;51.356;-2.906;2023-06-10T17:20:34;9.97;;;5.63;;
70369;SDS011;57790;51.356;-2.906;2023-06-10T17:23:35;9.93;;;4.70;;
70369;SDS011;57790;51.356;-2.906;2023-06-10T17:26:35;11.53;;;5.17;;
70369;SDS011;57790;51.356;-2.906;2023-06-10T17:29:35;11.77;;;5.50;;
70369;SDS011;57790;51.356;-2.906;2023-06-10T17:32:36;11.93;;;5.30;;
70369;SDS011;57790;51.356;-2.906;2023-06-10T17:35:39;10.48;;;5.57;;
70369;SDS011;57790;51.356;-2.906;2023-06-10T17:38:41;13.02;;;6.00;;
70369;SDS011;57790;51.356;-2.906;2023-06-10T17:41:41;10.37;;;5.50;;
70369;SDS011;57790;51.356;-2.906;2023-06-10T17:44:41;10.37;;;5.50;;
70369;SDS011;57790;51.356;-2.906;2023-06-10T17:47:42;11.17;;;5.97;;
70369;SDS011;57790;51.356;-2.906;2023-06-10T17:50:42;12.03;;;6.60;;